This is the latest recevied weather packets stored in our database for station/object N7MLR. If no packets are shown the sender has not sent any weather packets the latest 10 day(s).
| Time | Temp. | Humidity | Pressure | Rain* | Wind** | Luminosity | Snow |
|---|---|---|---|---|---|---|---|
| 1777321521 | 31.67° C | 65% | 1009.7 hPa | 0 mm | - | 350 W/m² | - |
| 1777321218 | 32.78° C | 62% | 1009.7 hPa | 0 mm | - | 663 W/m² | - |
| 1777320916 | 32.22° C | 64% | 1009.6 hPa | 0 mm | - | 498 W/m² | - |
| 1777320613 | 32.22° C | 63% | 1009.7 hPa | 0 mm | - | 768 W/m² | - |
| 1777320310 | 31.67° C | 62% | 1009.9 hPa | 0 mm | - | 629 W/m² | - |
| 1777320006 | 31.11° C | 65% | 1009.8 hPa | 0 mm | - | 686 W/m² | - |
| 1777319704 | 31.67° C | 63% | 1009.9 hPa | 0 mm | - | 220 W/m² | - |
| 1777319401 | 31.67° C | 64% | 1010 hPa | 0 mm | - | 735 W/m² | - |
| 1777319098 | 31.67° C | 65% | 1010.1 hPa | 0 mm | - | 321 W/m² | - |
| 1777318795 | 31.67° C | 63% | 1010.2 hPa | 0 mm | - | 880 W/m² | - |
| 1777318490 | 31.11° C | 66% | 1010 hPa | 0 mm | - | 765 W/m² | - |
| 1777318188 | 31.11° C | 66% | 1010 hPa | 0 mm | - | 459 W/m² | - |
| 1777317885 | 30.56° C | 67% | 1010.2 hPa | 0 mm | - | 399 W/m² | - |
| 1777317582 | 31.11° C | 65% | 1010.2 hPa | 0 mm | - | 289 W/m² | - |
| 1777317279 | 31.11° C | 68% | 1010.3 hPa | 0 mm | - | 684 W/m² | - |
| 1777316974 | 31.67° C | 66% | 1010.1 hPa | 0 mm | - | 351 W/m² | - |
| 1777316672 | 31.67° C | 65% | 1010.3 hPa | 0 mm | - | 864 W/m² | - |
| 1777316368 | 31.11° C | 66% | 1010.2 hPa | 0 mm | - | 495 W/m² | - |
| 1777316066 | 31.11° C | 65% | 1010.2 hPa | 0 mm | - | 835 W/m² | - |
| 1777315764 | 30° C | 69% | 1010.4 hPa | 0 mm | - | 258 W/m² | - |
| 1777315462 | 29.44° C | 72% | 1010.3 hPa | 0 mm | - | 707 W/m² | - |
| 1777315159 | 29.44° C | 71% | 1010.3 hPa | 0 mm | - | 837 W/m² | - |
| 1777314855 | 29.44° C | 72% | 1010.5 hPa | 0 mm | - | 396 W/m² | - |
| 1777314551 | 28.89° C | 73% | 1010.4 hPa | 0 mm | - | 591 W/m² | - |
| 1777314248 | 28.89° C | 73% | 1010.4 hPa | 0 mm | - | 351 W/m² | - |
* Rain latest hour (hover to see other rain measurements)
** Current wind speed in m/s (hover to see current wind gust speed)